createdAt,value
2019-04-27T00:00:15.245Z,97.60
2019-04-27T00:03:19.842Z,97.70
2019-04-27T00:06:13.540Z,97.80
2019-04-27T00:09:03.673Z,98.00
2019-04-27T00:11:56.217Z,98.00
2019-04-27T00:14:43.963Z,97.80
2019-04-27T00:20:58.556Z,97.50
2019-04-27T00:23:49.419Z,97.30
2019-04-27T00:26:37.005Z,97.00
2019-04-27T00:29:26.908Z,97.20
2019-04-27T00:32:14.584Z,97.00
2019-04-27T00:35:03.712Z,96.90
2019-04-27T00:37:53.485Z,96.70
2019-04-27T00:40:43.716Z,96.60
2019-04-27T00:43:32.839Z,96.60
2019-04-27T00:46:22.809Z,96.40
2019-04-27T00:49:11.098Z,96.20
2019-04-27T00:51:59.688Z,96.10
2019-04-27T00:54:47.702Z,96.20
2019-04-27T00:57:37.983Z,96.20
2019-04-27T01:00:27.543Z,96.00
2019-04-27T01:03:19.565Z,95.70
2019-04-27T01:06:07.280Z,95.80
2019-04-27T01:08:55.695Z,96.00
2019-04-27T01:11:43.908Z,95.90
2019-04-27T01:14:32.098Z,95.70
2019-04-27T01:17:20.139Z,96.10
2019-04-27T01:20:08.669Z,96.80
2019-04-27T01:22:57.002Z,97.10
2019-04-27T01:26:03.118Z,97.90
2019-04-27T01:28:53.415Z,98.20
2019-04-27T01:31:42.412Z,98.30
2019-04-27T01:34:31.152Z,98.40
2019-04-27T01:37:21.027Z,98.40
2019-04-27T01:40:10.733Z,98.60
2019-04-27T01:42:58.956Z,98.80
2019-04-27T01:45:48.725Z,98.60
2019-04-27T01:48:36.546Z,98.70
2019-04-27T01:51:24.890Z,98.50
2019-04-27T01:54:15.049Z,98.50
2019-04-27T01:57:04.263Z,98.10
2019-04-27T01:59:53.011Z,98.00
2019-04-27T02:02:42.815Z,98.40
2019-04-27T02:05:49.162Z,97.70
2019-04-27T02:08:36.526Z,97.70
2019-04-27T02:11:24.816Z,97.80
2019-04-27T02:14:12.878Z,97.80
2019-04-27T02:17:01.566Z,97.70
2019-04-27T02:19:50.220Z,97.70
2019-04-27T02:22:38.469Z,97.90
2019-04-27T02:25:26.206Z,97.90
2019-04-27T02:28:32.673Z,98.20
2019-04-27T02:31:34.897Z,98.70
2019-04-27T02:34:32.295Z,98.90
2019-04-27T02:37:20.190Z,99.20
2019-04-27T02:40:14.750Z,99.30
2019-04-27T02:43:02.576Z,99.10
2019-04-27T02:45:50.972Z,99.20
2019-04-27T02:48:52.948Z,99.50
2019-04-27T02:51:33.158Z,99.80
2019-04-27T02:54:20.985Z,99.90
2019-04-27T02:57:10.250Z,99.90
2019-04-27T03:00:00.003Z,99.90
2019-04-27T03:02:51.039Z,99.90
2019-04-27T03:05:40.105Z,99.90
2019-04-27T03:08:29.479Z,99.90
2019-04-27T03:11:20.526Z,99.90
2019-04-27T03:14:34.812Z,99.90
2019-04-27T03:17:22.922Z,99.90
2019-04-27T03:20:20.130Z,99.90
2019-04-27T03:23:10.575Z,99.90
2019-04-27T03:26:12.056Z,99.90
2019-04-27T03:29:00.158Z,99.90
2019-04-27T03:31:54.117Z,99.90
2019-04-27T03:34:41.691Z,99.90
2019-04-27T03:37:47.447Z,99.90
2019-04-27T03:40:35.669Z,99.90
2019-04-27T03:43:24.875Z,99.90
2019-04-27T03:46:12.722Z,99.90
2019-04-27T03:49:00.658Z,99.90
2019-04-27T03:51:50.727Z,99.90
2019-04-27T03:54:40.278Z,99.90
2019-04-27T03:57:45.054Z,99.90
2019-04-27T04:00:36.108Z,99.90
2019-04-27T04:03:24.334Z,99.90
2019-04-27T04:06:13.266Z,99.90
2019-04-27T04:09:01.877Z,99.90
2019-04-27T04:11:51.413Z,99.90
2019-04-27T04:14:42.543Z,99.90
2019-04-27T04:17:30.682Z,99.90
2019-04-27T04:20:20.124Z,99.90
2019-04-27T04:23:10.655Z,99.90
2019-04-27T04:25:59.747Z,99.90
2019-04-27T04:28:49.996Z,99.90
2019-04-27T04:31:40.133Z,99.90
2019-04-27T04:34:26.694Z,99.90
2019-04-27T04:37:15.061Z,99.90
2019-04-27T04:40:04.250Z,99.90
2019-04-27T04:43:12.077Z,99.90
2019-04-27T04:46:19.087Z,99.90
2019-04-27T04:49:09.421Z,99.90
2019-04-27T04:51:59.255Z,97.60
2019-04-27T04:54:46.331Z,98.80
2019-04-27T04:57:34.143Z,99.90
2019-04-27T05:00:22.368Z,99.90
2019-04-27T05:03:11.186Z,99.90
2019-04-27T05:05:59.217Z,99.90
2019-04-27T05:08:47.001Z,99.90
2019-04-27T05:11:35.286Z,99.90
2019-04-27T05:14:24.034Z,99.50
2019-04-27T05:17:12.052Z,99.20
2019-04-27T05:20:01.489Z,99.60
2019-04-27T05:22:49.757Z,99.60
2019-04-27T05:25:39.011Z,99.70
2019-04-27T05:28:27.664Z,99.30
2019-04-27T05:31:15.781Z,98.90
2019-04-27T05:34:03.555Z,98.80
2019-04-27T05:36:52.588Z,99.00
2019-04-27T05:39:42.642Z,98.50
2019-04-27T05:42:31.278Z,97.90
2019-04-27T05:45:57.700Z,98.90
2019-04-27T05:48:46.726Z,99.10
2019-04-27T05:51:37.065Z,99.10
2019-04-27T05:54:24.116Z,99.00
2019-04-27T05:57:12.010Z,99.10
2019-04-27T06:00:02.318Z,99.20
2019-04-27T06:02:50.079Z,99.40
2019-04-27T06:05:39.130Z,99.60
2019-04-27T06:08:29.039Z,99.60
2019-04-27T06:11:17.220Z,99.70
2019-04-27T06:14:05.518Z,99.50
2019-04-27T06:16:53.762Z,99.70
2019-04-27T06:19:43.894Z,99.10
2019-04-27T06:22:31.442Z,99.10
2019-04-27T06:25:21.610Z,99.00
2019-04-27T06:28:09.303Z,99.10
2019-04-27T06:30:59.352Z,98.50
2019-04-27T06:33:47.545Z,98.20
2019-04-27T06:36:35.725Z,98.10
2019-04-27T06:39:23.568Z,97.50
2019-04-27T06:42:18.538Z,97.70
2019-04-27T06:45:01.741Z,97.50
2019-04-27T06:47:51.289Z,98.10
2019-04-27T06:50:39.051Z,97.60
2019-04-27T06:53:29.190Z,97.20
2019-04-27T06:56:18.466Z,97.50
2019-04-27T06:59:08.596Z,96.90
2019-04-27T07:01:56.518Z,96.40
2019-04-27T07:04:45.045Z,96.30
2019-04-27T07:07:32.541Z,95.80
2019-04-27T07:10:20.875Z,95.60
2019-04-27T07:13:09.658Z,95.00
2019-04-27T07:15:59.576Z,95.50
2019-04-27T07:18:47.574Z,94.80
2019-04-27T07:21:36.156Z,94.90
2019-04-27T07:24:24.679Z,95.60
2019-04-27T07:27:12.976Z,95.20
2019-04-27T07:30:01.895Z,94.30
2019-04-27T07:32:49.847Z,95.10
2019-04-27T07:35:39.293Z,94.10
2019-04-27T07:38:29.374Z,95.20
2019-04-27T07:41:19.446Z,93.60
2019-04-27T07:44:10.205Z,93.90
2019-04-27T07:47:19.340Z,92.50
2019-04-27T07:50:09.673Z,92.00
2019-04-27T07:52:58.746Z,92.60
2019-04-27T07:55:47.028Z,93.10
2019-04-27T07:58:35.482Z,93.50
2019-04-27T08:01:23.942Z,92.30
2019-04-27T08:04:11.691Z,92.70
2019-04-27T08:06:59.760Z,91.30
2019-04-27T08:09:49.304Z,91.00
2019-04-27T08:12:38.536Z,90.70
2019-04-27T08:15:26.196Z,90.80
2019-04-27T08:18:14.488Z,91.00
2019-04-27T08:21:03.070Z,90.30
2019-04-27T08:23:51.342Z,91.70
2019-04-27T08:26:56.312Z,91.40
2019-04-27T08:29:58.800Z,88.80
2019-04-27T08:32:49.696Z,89.90
2019-04-27T08:35:38.890Z,90.60
2019-04-27T08:38:28.454Z,87.10
2019-04-27T08:41:17.511Z,89.20
2019-04-27T08:44:05.650Z,87.10
2019-04-27T08:46:54.347Z,89.70
2019-04-27T08:49:43.035Z,86.30
2019-04-27T08:52:34.318Z,87.70
2019-04-27T08:55:22.564Z,85.90
2019-04-27T08:58:10.899Z,87.30
2019-04-27T09:00:59.138Z,85.80
2019-04-27T09:03:49.411Z,87.00
2019-04-27T09:06:39.931Z,87.00
2019-04-27T09:09:41.627Z,89.50
2019-04-27T09:12:47.092Z,89.40
2019-04-27T09:15:40.150Z,86.70
2019-04-27T09:18:32.411Z,81.30
2019-04-27T09:21:19.500Z,83.20
2019-04-27T09:24:07.450Z,88.30
2019-04-27T09:26:55.630Z,91.70
2019-04-27T09:29:43.896Z,93.10
2019-04-27T09:32:34.495Z,93.90
2019-04-27T09:35:22.980Z,94.30
2019-04-27T09:38:11.476Z,94.40
2019-04-27T09:40:59.716Z,94.40
2019-04-27T09:43:47.964Z,94.00
2019-04-27T09:46:36.416Z,93.90
2019-04-27T09:49:26.318Z,94.00
2019-04-27T09:52:25.157Z,92.60
2019-04-27T09:55:06.678Z,91.80
2019-04-27T09:57:54.482Z,90.60
2019-04-27T10:00:42.653Z,90.60
2019-04-27T10:03:30.787Z,89.20
2019-04-27T10:06:18.691Z,89.10
2019-04-27T10:09:07.892Z,89.50
2019-04-27T10:11:55.753Z,87.50
2019-04-27T10:14:45.452Z,86.80
2019-04-27T10:17:33.856Z,86.20
2019-04-27T10:20:21.817Z,85.70
2019-04-27T10:23:09.877Z,84.10
2019-04-27T10:25:57.985Z,85.70
2019-04-27T10:28:46.252Z,81.00
2019-04-27T10:31:34.656Z,78.30
2019-04-27T10:34:22.531Z,80.20
2019-04-27T10:37:10.598Z,80.90
2019-04-27T10:39:58.875Z,81.60
2019-04-27T10:42:46.990Z,82.00
2019-04-27T10:45:36.047Z,83.90
2019-04-27T10:48:26.540Z,82.00
2019-04-27T10:51:16.027Z,84.40
2019-04-27T10:54:06.181Z,83.50
2019-04-27T10:56:55.828Z,84.80
2019-04-27T10:59:43.794Z,82.90
2019-04-27T11:02:32.748Z,84.40
2019-04-27T11:05:23.076Z,84.30
2019-04-27T11:08:10.940Z,82.20
2019-04-27T11:10:59.587Z,80.90
2019-04-27T11:13:47.726Z,79.50
2019-04-27T11:16:37.757Z,77.00
2019-04-27T11:19:26.827Z,80.60
2019-04-27T11:22:15.998Z,79.40
2019-04-27T11:25:07.037Z,79.50
2019-04-27T11:27:55.938Z,79.00
2019-04-27T11:30:44.970Z,80.10
2019-04-27T11:33:33.182Z,80.20
2019-04-27T11:36:25.662Z,80.30
2019-04-27T11:39:16.248Z,80.70
2019-04-27T11:42:05.283Z,78.50
2019-04-27T11:44:55.554Z,79.40
2019-04-27T11:47:42.219Z,77.60
2019-04-27T11:50:29.979Z,78.20
2019-04-27T11:53:22.610Z,75.80
2019-04-27T11:56:07.640Z,78.50
2019-04-27T11:58:56.060Z,76.60
2019-04-27T12:01:45.860Z,78.70
2019-04-27T12:04:33.909Z,78.40
2019-04-27T12:07:22.285Z,77.60
2019-04-27T12:10:15.833Z,75.10
2019-04-27T12:13:05.441Z,75.20
2019-04-27T12:15:53.801Z,76.40
2019-04-27T12:18:41.277Z,75.80
2019-04-27T12:21:29.447Z,76.40
2019-04-27T12:24:17.953Z,77.40
2019-04-27T12:27:10.809Z,75.50
2019-04-27T12:30:09.274Z,73.80
2019-04-27T12:32:57.766Z,75.00
2019-04-27T12:35:48.268Z,77.50
2019-04-27T12:38:36.978Z,78.00
2019-04-27T12:41:25.058Z,73.20
2019-04-27T12:44:13.289Z,75.10
2019-04-27T12:47:02.639Z,75.90
2019-04-27T12:49:51.233Z,77.40
2019-04-27T12:52:39.889Z,75.40
2019-04-27T12:55:41.566Z,77.20
2019-04-27T12:58:47.552Z,80.70
2019-04-27T13:01:36.134Z,81.70
2019-04-27T13:04:24.766Z,79.40
2019-04-27T13:07:12.810Z,76.50
2019-04-27T13:10:01.167Z,75.20
2019-04-27T13:12:48.975Z,73.80
2019-04-27T13:15:37.627Z,75.30
2019-04-27T13:18:26.305Z,71.50
2019-04-27T13:21:15.763Z,76.80
2019-04-27T13:24:06.289Z,72.50
2019-04-27T13:26:53.080Z,72.00
2019-04-27T13:29:48.750Z,72.40
2019-04-27T13:32:36.857Z,75.60
2019-04-27T13:35:25.823Z,73.10
2019-04-27T13:38:13.993Z,74.50
2019-04-27T13:41:06.869Z,74.00
2019-04-27T13:43:57.186Z,75.50
2019-04-27T13:47:02.573Z,76.90
2019-04-27T13:50:01.222Z,79.10
2019-04-27T13:52:49.771Z,79.00
2019-04-27T13:55:37.936Z,77.70
2019-04-27T13:58:25.777Z,75.50
2019-04-27T14:01:14.466Z,75.20
2019-04-27T14:04:02.889Z,76.10
2019-04-27T14:06:51.124Z,76.00
2019-04-27T14:09:39.299Z,75.30
2019-04-27T14:12:28.508Z,75.60
2019-04-27T14:15:36.299Z,75.30
2019-04-27T14:18:24.552Z,73.70
2019-04-27T14:21:12.825Z,73.30
2019-04-27T14:24:00.647Z,78.50
2019-04-27T14:26:48.652Z,78.20
2019-04-27T14:29:39.118Z,76.70
2019-04-27T14:32:28.621Z,78.10
2019-04-27T14:35:18.132Z,77.10
2019-04-27T14:38:06.777Z,78.30
2019-04-27T14:40:56.871Z,76.10
2019-04-27T14:43:44.863Z,73.50
2019-04-27T14:46:32.954Z,73.30
2019-04-27T14:49:21.324Z,72.30
2019-04-27T14:52:09.728Z,72.60
2019-04-27T14:54:58.286Z,72.10
2019-04-27T14:57:46.797Z,71.20
2019-04-27T15:00:35.714Z,70.80
2019-04-27T15:03:24.129Z,72.90
2019-04-27T15:06:13.802Z,72.50
2019-04-27T15:09:01.970Z,72.90
2019-04-27T15:11:53.581Z,73.30
2019-04-27T15:14:39.212Z,72.90
2019-04-27T15:17:29.422Z,69.60
2019-04-27T15:20:22.559Z,70.10
2019-04-27T15:23:11.429Z,72.60
2019-04-27T15:26:00.404Z,71.70
2019-04-27T15:28:51.157Z,72.10
2019-04-27T15:31:41.077Z,74.40
2019-04-27T15:34:35.570Z,73.30
2019-04-27T15:37:38.872Z,72.30
2019-04-27T15:40:30.911Z,70.60
2019-04-27T15:43:22.920Z,72.70
2019-04-27T15:46:11.058Z,72.00
2019-04-27T15:49:03.138Z,73.60
2019-04-27T15:51:50.683Z,73.20
2019-04-27T15:54:39.079Z,70.10
2019-04-27T15:57:27.942Z,73.30
2019-04-27T16:00:21.783Z,74.90
2019-04-27T16:03:09.985Z,76.20
2019-04-27T16:05:58.906Z,75.50
2019-04-27T16:08:49.007Z,77.30
2019-04-27T16:11:36.950Z,77.40
2019-04-27T16:14:25.158Z,79.00
2019-04-27T16:17:13.450Z,78.30
2019-04-27T16:20:01.641Z,76.90
2019-04-27T16:22:49.959Z,77.20
2019-04-27T16:25:45.973Z,77.20
2019-04-27T16:28:27.095Z,79.80
2019-04-27T16:31:36.706Z,79.70
2019-04-27T16:34:25.627Z,79.50
2019-04-27T16:37:20.731Z,80.30
2019-04-27T16:40:08.419Z,81.70
2019-04-27T16:42:58.415Z,79.80
2019-04-27T16:45:48.515Z,81.20
2019-04-27T16:48:39.035Z,82.40
2019-04-27T16:51:29.764Z,80.10
2019-04-27T16:57:10.418Z,81.60
2019-04-27T17:00:22.758Z,82.20
2019-04-27T17:03:09.326Z,82.00
2019-04-27T17:05:58.171Z,82.50
2019-04-27T17:08:46.579Z,83.60
2019-04-27T17:11:34.565Z,84.40
2019-04-27T17:12:40.067Z,81.60
2019-04-27T17:14:29.198Z,85.10
2019-04-27T17:17:19.648Z,85.80
2019-04-27T17:20:08.512Z,85.30
2019-04-27T17:22:58.070Z,84.90
2019-04-27T17:25:48.057Z,84.80
2019-04-27T17:28:39.242Z,84.80
2019-04-27T17:31:29.263Z,83.60
2019-04-27T17:34:19.004Z,84.50
2019-04-27T17:37:05.982Z,85.10
2019-04-27T17:39:59.542Z,85.00
2019-04-27T17:42:44.344Z,84.30
2019-04-27T17:45:36.160Z,86.00
2019-04-27T17:48:22.452Z,86.40
2019-04-27T17:51:11.150Z,85.80
2019-04-27T17:54:03.060Z,84.30
2019-04-27T17:56:52.286Z,84.40
2019-04-27T17:59:39.746Z,85.00
2019-04-27T18:02:29.329Z,85.50
2019-04-27T18:05:18.438Z,86.60
2019-04-27T18:08:08.355Z,86.60
2019-04-27T18:11:16.087Z,87.00
2019-04-27T18:14:05.085Z,86.90
2019-04-27T18:16:53.445Z,87.00
2019-04-27T18:19:45.866Z,86.80
2019-04-27T18:22:36.634Z,86.50
2019-04-27T18:25:24.769Z,86.50
2019-04-27T18:28:15.200Z,86.40
2019-04-27T18:31:05.138Z,85.30
2019-04-27T18:33:53.042Z,86.00
2019-04-27T18:36:43.758Z,86.80
2019-04-27T18:39:31.660Z,86.80
2019-04-27T18:42:23.330Z,87.10
2019-04-27T18:45:09.240Z,86.90
2019-04-27T18:47:59.383Z,87.20
2019-04-27T18:50:55.156Z,88.00
2019-04-27T18:53:42.857Z,88.30
2019-04-27T18:56:33.555Z,88.90
2019-04-27T18:59:20.903Z,89.00
2019-04-27T19:02:09.274Z,88.50
2019-04-27T19:04:58.217Z,88.10
2019-04-27T19:07:48.370Z,87.80
2019-04-27T19:10:38.273Z,88.10
2019-04-27T19:13:26.119Z,88.70
2019-04-27T19:16:15.629Z,88.50
2019-04-27T19:19:03.733Z,89.30
2019-04-27T19:22:00.168Z,89.30
2019-04-27T19:24:47.999Z,89.40
2019-04-27T19:27:48.574Z,89.80
2019-04-27T19:30:38.458Z,89.50
2019-04-27T19:33:28.637Z,89.90
2019-04-27T19:36:16.260Z,90.00
2019-04-27T19:39:06.431Z,90.10
2019-04-27T19:42:00.342Z,89.90
2019-04-27T19:44:44.621Z,90.10
2019-04-27T19:47:32.807Z,90.20
2019-04-27T19:50:21.727Z,90.10
2019-04-27T19:53:10.059Z,90.20
2019-04-27T19:56:03.845Z,90.20
2019-04-27T19:58:58.202Z,90.00
2019-04-27T20:01:48.189Z,90.20
2019-04-27T20:04:37.728Z,90.10
2019-04-27T20:07:25.307Z,90.40
2019-04-27T20:10:14.087Z,90.60
2019-04-27T20:13:02.467Z,90.50
2019-04-27T20:15:57.450Z,90.60
2019-04-27T20:18:48.329Z,90.60
2019-04-27T20:21:36.863Z,90.80
2019-04-27T20:24:24.897Z,90.80
2019-04-27T20:27:13.198Z,90.90
2019-04-27T20:30:06.464Z,90.90
2019-04-27T20:32:54.871Z,91.10
2019-04-27T20:35:43.520Z,90.80
2019-04-27T20:38:32.200Z,91.00
2019-04-27T20:41:21.737Z,91.10
2019-04-27T20:44:12.400Z,91.30
2019-04-27T20:47:01.272Z,91.40
2019-04-27T20:49:48.897Z,91.40
2019-04-27T20:52:47.782Z,91.30
2019-04-27T20:55:36.100Z,91.30
2019-04-27T20:58:35.866Z,91.40
2019-04-27T21:01:24.747Z,91.30
2019-04-27T21:04:13.911Z,91.20
2019-04-27T21:07:11.044Z,91.20
2019-04-27T21:09:59.717Z,91.20
2019-04-27T21:12:47.795Z,91.40
2019-04-27T21:15:36.072Z,91.30
2019-04-27T21:18:24.405Z,91.40
2019-04-27T21:21:12.588Z,91.30
2019-04-27T21:24:01.034Z,91.20
2019-04-27T21:26:48.977Z,91.30
2019-04-27T21:29:37.497Z,91.60
2019-04-27T21:32:25.972Z,91.60
2019-04-27T21:35:14.214Z,91.70
2019-04-27T21:38:04.500Z,91.90
2019-04-27T21:40:51.347Z,91.70
2019-04-27T21:43:42.077Z,91.90
2019-04-27T21:46:31.675Z,92.00
2019-04-27T21:49:21.439Z,88.90
2019-04-27T21:52:14.663Z,85.50
2019-04-27T21:55:02.359Z,88.50
2019-04-27T21:57:51.343Z,90.50
2019-04-27T22:00:42.823Z,92.70
2019-04-27T22:03:31.680Z,94.30
2019-04-27T22:06:19.921Z,95.30
2019-04-27T22:09:10.757Z,95.50
2019-04-27T22:12:00.837Z,95.60
2019-04-27T22:14:48.812Z,94.70
2019-04-27T22:17:37.379Z,95.30
2019-04-27T22:20:29.057Z,95.00
2019-04-27T22:23:16.948Z,94.90
2019-04-27T22:26:04.708Z,94.30
2019-04-27T22:28:52.884Z,95.10
2019-04-27T22:31:41.588Z,94.80
2019-04-27T22:34:31.229Z,95.20
2019-04-27T22:37:21.274Z,95.20
2019-04-27T22:40:26.990Z,95.70
2019-04-27T22:43:25.923Z,96.10
2019-04-27T22:46:16.642Z,96.90
2019-04-27T22:49:04.738Z,97.00
2019-04-27T22:51:53.458Z,97.40
2019-04-27T22:54:42.130Z,97.30
2019-04-27T22:57:31.804Z,97.90
2019-04-27T23:00:37.733Z,98.20
2019-04-27T23:03:27.859Z,98.90
2019-04-27T23:06:15.825Z,99.20
2019-04-27T23:09:05.223Z,99.20
2019-04-27T23:11:53.545Z,99.50
2019-04-27T23:14:41.555Z,99.50
2019-04-27T23:17:31.765Z,99.10
2019-04-27T23:20:20.862Z,99.00
2019-04-27T23:23:09.126Z,99.00
2019-04-27T23:25:57.052Z,99.50
2019-04-27T23:28:45.543Z,99.60
2019-04-27T23:31:35.749Z,99.20
2019-04-27T23:34:23.760Z,99.20
2019-04-27T23:37:11.815Z,99.60
2019-04-27T23:40:00.539Z,99.40
2019-04-27T23:42:49.324Z,99.90
2019-04-27T23:45:37.601Z,99.70
2019-04-27T23:48:25.932Z,99.50
2019-04-27T23:51:21.924Z,98.10
2019-04-27T23:54:11.203Z,98.00
2019-04-27T23:56:59.711Z,97.70
2019-04-27T23:59:48.016Z,97.20
